Portada
METAR-TAF:

METAR-TAF

Aeroports :

Al-Kuwait, Kuwait

latitud: 29-13N, longitud: 047-59E, altitud: 55 m

Observació

L'informe es va fer fa 11 minuts, a les 05:00 UTC
Vent 5 kt del Oest/Nord-Oest
Temperatura 34°C
Humitat 26%
Pressió 1011 hPa
Visibilitat: 8000 m
Cel clar

METAR: OKBK 220500Z 29005KT 8000 SKC 34/12 Q1011 NOSIG

Hora: 08:11 (05:11 UTC)

Pronòstic

L'informe es va fer fa 6 hores i 26 minuts, a les 22:45 UTC
Pronòstic vàlid del 22 a les 00 UTC al 23 a les 06 UTC
Vent 10 kt del Nord/Nord-Oest amb ràfegues de 22 kt
Visibilitat: 7000 m
Cel clar
Temporalment
l' 22 a les 09 UTC al 22 a les 15 UTC
Visibilitat: 3000 m
torb alta de pols

TAF: OKBK 212245Z 2200/2306 33010G22KT 7000 SKC TEMPO 2209/2215 3000 BLDU

Observacions i pronòstics meteorològics de més de 4000 aeroports (METAR i TAF).

Les estacions disponibles són els punts grocs i vermells al mapa.

Posi el ratolí al punt desitjat per veure el nom de l'estació.

Feu clic per veure les observacions i els pronòstics meteorològics.

Per canviar el mapa: feu clic els botons verds amb una creu de color negre per apropar; al botó verd amb un guió per allunyar la imatge; o en les fletxes verdes per a mapes adjacents.


METAR-TAF: